Grantsville, MD

2:48 PM EST on February 08, 2016 (GMT -0500)
The Highlands | | Change Station
CLOSE
Current Station
Personal Weather Station
Location: Grantsville, MD
Elevation: 2526 ft
Nearby Weather Stations

Elev 2526 ft 39.72 °N, 79.07 °W | Updated 5 minutes ago

Mostly Cloudy
Mostly Cloudy
39.7 °F
Feels Like 36 °F
N
5.8
Wind Variable Wind from ESE

Today
High -- | Low -- °F
--% Chance of Precip.
Yesterday
High -- | Low -- °F
Precip. -- in
Pressure 29.52 in
Visibility 10.0 miles
Clouds Overcast 2700 ft
Windchill 36 °F
Dew Point 23 °F
Humidity 50%
Rainfall 0.00 in
Snow Depth Not available.
7:17 AM 5:43 PM
New Moon, 0% visible
METAR K2G4 081930Z AUTO 12008KT 10SM OVC027 01/M05 A2952 RMK AO1
Pressure 29.52 in
Visibility 10.0 miles
Clouds Overcast 2700 ft
Windchill 36 °F
Dew Point 23 °F
Humidity 50%
Rainfall 0.00 in
Snow Depth Not available.
7:17 AM 5:43 PM
New Moon, 0% visible
METAR K2G4 081930Z AUTO 12008KT 10SM OVC027 01/M05 A2952 RMK AO1

10-Day Weather Forecast

Almanac

Astronomy

Feb. 08, 2016 Rise Set
Actual Time
Civil Twilight
Nautical Twilight
Astronomical Twilight
Moon
Length of Visible Light
Length of Day
Tomorrow will be .
, % of the Moon is Illuminated

Today's Extremes

State Highs State Lows

Community

WunderPhotos

Upload Photos

1,891,499 photos uploaded!

WunderBlog® & News

Nearby

Air Quality

  Air Quality AQ Index Pollutant
Not available.

Snow Depth

Station Depth Elevation

Earthquake Activity

City Distance Mag. Time & Date
Minimum magnitude displayed is 2.5.

Coastal Water Temperatures

Place Temperature

Stations

Nearby Weather Stations

Station Location Temp. Windchill Dew Point Humidity Wind Precip. Elev Updated Type
                   

Watches & Warnings

There are currently no watches in effect.